Time;durP1;ratioP1;P1;durP2;ratioP2;P2;SDS_P1;SDS_P2;PMS_P1;PMS_P2;Temp;Humidity;BMP_temperature;BMP_pressure;BME280_temperature;BME280_humidity;BME280_pressure;Samples;Min_cycle;Max_cycle;Signal;HPM_P1;HPM_P2
2022/02/21 00:00:30;;;;;;;0.50;0.50;;;;;;;8.13;67.16;95869.25;29395;246;63014;-63
2022/02/21 00:01:03;;;;;;;0.50;0.50;;;;;;;8.14;66.71;95880.88;29395;222;63005;-59
2022/02/21 00:01:34;;;;;;;0.50;0.50;;;;;;;8.11;66.96;95857.94;29395;220;63009;-57
2022/02/21 00:02:06;;;;;;;0.50;0.50;;;;;;;8.14;66.81;95856.56;29395;202;63004;-58
2022/02/21 00:02:39;;;;;;;0.50;0.50;;;;;;;8.14;67.08;95867.34;29395;262;63009;-58
2022/02/21 00:03:11;;;;;;;0.50;0.50;;;;;;;8.11;67.08;95840.94;29394;197;64022;-59
2022/02/21 00:03:43;;;;;;;0.50;0.50;;;;;;;8.10;67.18;95839.34;29394;234;64013;-58
2022/02/21 00:04:14;;;;;;;0.50;0.50;;;;;;;8.13;66.96;95846.84;29395;220;63004;-58
2022/02/21 00:04:45;;;;;;;0.50;0.50;;;;;;;8.13;67.03;95844.12;29395;216;63008;-57
2022/02/21 00:05:18;;;;;;;0.60;0.60;;;;;;;8.12;67.08;95886.56;29395;203;63010;-58
2022/02/21 00:05:50;;;;;;;0.50;0.50;;;;;;;8.16;66.98;95847.03;29395;221;63009;-59
2022/02/21 00:06:21;;;;;;;0.50;0.50;;;;;;;8.16;66.97;95844.34;29395;222;63005;-59
2022/02/21 00:06:52;;;;;;;0.50;0.50;;;;;;;8.11;67.12;95827.44;29395;235;63009;-60
2022/02/21 00:07:23;;;;;;;0.50;0.50;;;;;;;8.06;67.44;95839.94;29395;199;63005;-59
2022/02/21 00:07:54;;;;;;;0.50;0.50;;;;;;;8.04;67.57;95846.75;29395;202;63009;-58
2022/02/21 00:08:25;;;;;;;0.50;0.50;;;;;;;8.05;67.45;95832.94;29394;234;64009;-58
2022/02/21 00:08:58;;;;;;;0.50;0.50;;;;;;;8.09;67.27;95843.94;29395;218;63009;-60
2022/02/21 00:09:29;;;;;;;0.60;0.60;;;;;;;8.13;66.34;95822.53;29395;212;63004;-51
2022/02/21 00:10:01;;;;;;;0.50;0.50;;;;;;;8.20;66.35;95831.03;29394;218;64013;-54
2022/02/21 00:10:35;;;;;;;0.50;0.50;;;;;;;8.21;66.18;95824.53;29395;224;63004;-59
2022/02/21 00:11:06;;;;;;;0.50;0.50;;;;;;;8.25;66.15;95817.41;29395;232;63009;-60
2022/02/21 00:11:38;;;;;;;0.50;0.50;;;;;;;8.23;65.96;95860.94;29395;231;63007;-73
2022/02/21 00:12:09;;;;;;;0.50;0.50;;;;;;;8.25;66.04;95814.72;29395;208;63008;-52
2022/02/21 00:12:42;;;;;;;0.50;0.50;;;;;;;8.20;66.14;95836.44;29395;200;63005;-51
2022/02/21 00:13:13;;;;;;;0.50;0.50;;;;;;;8.24;66.06;95822.00;29395;206;63009;-55
2022/02/21 00:13:44;;;;;;;0.50;0.50;;;;;;;8.24;66.06;95818.50;29395;212;63005;-58
2022/02/21 00:14:15;;;;;;;0.50;0.50;;;;;;;8.21;66.19;95811.81;29394;238;64013;-60
2022/02/21 00:14:46;;;;;;;0.50;0.50;;;;;;;8.19;66.58;95816.72;29395;216;63005;-62
2022/02/21 00:15:23;;;;;;;0.50;0.50;;;;;;;8.22;66.22;95818.00;29395;208;63009;-62
2022/02/21 00:15:55;;;;;;;0.50;0.50;;;;;;;8.23;66.25;95820.41;29395;215;63005;-57
2022/02/21 00:16:26;;;;;;;0.50;0.50;;;;;;;8.21;66.26;95819.91;29395;205;63009;-59
2022/02/21 00:16:58;;;;;;;0.50;0.50;;;;;;;8.25;65.92;95806.59;29395;226;63004;-63
2022/02/21 00:17:29;;;;;;;0.50;0.50;;;;;;;8.24;66.12;95823.91;29395;229;63009;-62
2022/02/21 00:18:01;;;;;;;0.50;0.50;;;;;;;8.23;66.37;95827.72;29394;234;64009;-58
2022/02/21 00:18:32;;;;;;;0.62;0.62;;;;;;;8.20;66.50;95822.91;29395;252;63009;-55
2022/02/21 00:19:03;;;;;;;0.50;0.50;;;;;;;8.23;66.29;95816.91;29394;235;64009;-62
2022/02/21 00:19:34;;;;;;;0.50;0.50;;;;;;;8.25;66.14;95810.09;29394;239;64008;-63
2022/02/21 00:20:08;;;;;;;0.50;0.50;;;;;;;8.22;65.91;95799.09;29395;234;63001;-61
2022/02/21 00:20:39;;;;;;;0.50;0.50;;;;;;;8.16;66.37;95808.41;29394;206;64014;-57
2022/02/21 00:21:10;;;;;;;0.60;0.60;;;;;;;8.20;66.10;95812.91;29395;219;63005;-52
2022/02/21 00:21:42;;;;;;;0.50;0.50;;;;;;;8.24;66.02;95797.69;29395;237;63009;-62
2022/02/21 00:22:14;;;;;;;0.50;0.50;;;;;;;8.23;65.85;95800.69;29395;233;63005;-59
2022/02/21 00:22:45;;;;;;;0.50;0.50;;;;;;;8.19;66.29;95805.91;29395;239;63009;-60
2022/02/21 00:23:17;;;;;;;0.50;0.50;;;;;;;8.22;65.97;95799.09;29395;239;63009;-62
2022/02/21 00:23:49;;;;;;;0.50;0.50;;;;;;;8.24;66.34;95783.38;29395;198;63009;-60
2022/02/21 00:24:20;;;;;;;0.50;0.50;;;;;;;8.28;65.95;95776.25;29394;222;64009;-58
2022/02/21 00:24:51;;;;;;;0.50;0.50;;;;;;;8.32;65.61;95793.44;29395;216;63009;-55
2022/02/21 00:25:22;;;;;;;0.50;0.50;;;;;;;8.35;65.57;95782.06;29395;229;63004;-65
2022/02/21 00:25:54;;;;;;;0.50;0.50;;;;;;;8.38;65.61;95795.75;29395;243;63009;-65
2022/02/21 00:26:25;;;;;;;0.50;0.50;;;;;;;8.39;65.21;95772.25;29395;229;63004;-63
2022/02/21 00:26:56;;;;;;;0.50;0.50;;;;;;;8.38;65.17;95771.44;29395;230;63008;-61
2022/02/21 00:27:27;;;;;;;0.50;0.50;;;;;;;8.40;64.82;95752.22;29395;198;63004;-57
2022/02/21 00:27:58;;;;;;;0.50;0.50;;;;;;;8.37;64.96;95766.34;29395;207;63009;-60
2022/02/21 00:28:29;;;;;;;0.50;0.50;;;;;;;8.35;65.16;95766.62;29395;238;63005;-52
2022/02/21 00:29:01;;;;;;;0.50;0.50;;;;;;;8.35;65.17;95757.72;29395;248;63009;-59
2022/02/21 00:29:32;;;;;;;0.50;0.50;;;;;;;8.35;65.00;95772.03;29394;197;64009;-67
2022/02/21 00:30:05;;;;;;;0.60;0.60;;;;;;;8.37;64.87;95763.63;29395;213;63009;-59
2022/02/21 00:30:37;;;;;;;0.50;0.50;;;;;;;8.35;65.08;95771.25;29395;217;63005;-58
2022/02/21 00:31:08;;;;;;;0.50;0.50;;;;;;;8.32;65.55;95753.72;29395;204;63009;-58
2022/02/21 00:31:39;;;;;;;0.50;0.50;;;;;;;8.31;65.21;95767.56;29395;197;63005;-58
2022/02/21 00:32:10;;;;;;;0.50;0.50;;;;;;;8.33;65.51;95743.72;29395;225;63009;-65
2022/02/21 00:32:42;;;;;;;0.50;0.50;;;;;;;8.35;65.24;95750.41;29395;215;63004;-58
2022/02/21 00:33:13;;;;;;;0.50;0.50;;;;;;;8.34;65.35;95769.66;29395;320;63009;-59
2022/02/21 00:33:44;;;;;;;0.50;0.50;;;;;;;8.30;65.48;95771.34;29395;312;63004;-58
2022/02/21 00:34:15;;;;;;;0.50;0.50;;;;;;;8.31;65.60;95751.34;29395;223;63009;-57
2022/02/21 00:34:46;;;;;;;0.75;0.50;;;;;;;8.29;65.81;95748.13;29394;198;64008;-58
2022/02/21 00:35:17;;;;;;;0.50;0.50;;;;;;;8.26;66.06;95754.16;29395;240;63009;-58
2022/02/21 00:35:49;;;;;;;0.50;0.50;;;;;;;8.22;66.20;95755.87;29395;282;63005;-58
2022/02/21 00:36:21;;;;;;;0.50;0.50;;;;;;;8.28;65.49;95749.25;29395;245;63009;-52
2022/02/21 00:36:52;;;;;;;0.50;0.50;;;;;;;8.29;65.98;95757.03;29394;209;64009;-54
2022/02/21 00:37:24;;;;;;;0.50;0.50;;;;;;;8.27;66.07;95748.44;29395;211;63009;-58
2022/02/21 00:37:55;;;;;;;0.50;0.50;;;;;;;8.31;65.81;95756.75;29395;219;63005;-59
2022/02/21 00:38:26;;;;;;;0.60;0.60;;;;;;;8.34;65.62;95750.72;29394;240;64013;-58
2022/02/21 00:38:58;;;;;;;0.50;0.50;;;;;;;8.34;65.29;95750.72;29395;198;63005;-52
2022/02/21 00:39:29;;;;;;;0.50;0.50;;;;;;;8.38;65.13;95759.81;29395;235;63009;-59
2022/02/21 00:40:00;;;;;;;0.50;0.50;;;;;;;8.42;65.42;95755.41;29395;197;63004;-59
2022/02/21 00:40:33;;;;;;;0.50;0.50;;;;;;;8.38;65.44;95716.56;29395;202;63026;-67
2022/02/21 00:41:04;;;;;;;0.50;0.50;;;;;;;8.37;65.62;95737.41;29395;230;63004;-56
2022/02/21 00:41:35;;;;;;;0.50;0.50;;;;;;;8.36;65.66;95740.41;29394;257;64013;-59
2022/02/21 00:42:08;;;;;;;0.50;0.50;;;;;;;8.37;65.59;95742.00;29395;220;63004;-54
2022/02/21 00:42:39;;;;;;;0.60;0.60;;;;;;;8.34;65.67;95727.19;29395;196;63008;-54
2022/02/21 00:43:11;;;;;;;0.50;0.50;;;;;;;8.30;65.75;95736.22;29395;208;63005;-56
2022/02/21 00:43:42;;;;;;;0.50;0.50;;;;;;;8.28;66.00;95744.62;29395;225;63009;-58
2022/02/21 00:44:13;;;;;;;0.50;0.50;;;;;;;8.28;66.18;95754.66;29395;210;63005;-59
2022/02/21 00:44:44;;;;;;;0.50;0.50;;;;;;;8.26;66.15;95729.84;29395;247;63009;-58
2022/02/21 00:45:15;;;;;;;0.60;0.60;;;;;;;8.27;66.56;95743.03;29395;254;63000;-59
2022/02/21 00:45:47;;;;;;;0.50;0.50;;;;;;;8.30;65.90;95742.44;29395;255;63009;-53
2022/02/21 00:46:18;;;;;;;0.60;0.60;;;;;;;8.28;66.52;95738.44;29395;260;63005;-58
2022/02/21 00:46:56;;;;;;;0.50;0.50;;;;;;;8.27;66.38;95747.66;29394;236;64013;-56
2022/02/21 00:47:30;;;;;;;0.50;0.50;;;;;;;8.29;66.05;95746.22;29395;241;63004;-60
2022/02/21 00:48:01;;;;;;;0.50;0.50;;;;;;;8.29;66.17;95757.03;29395;212;63009;-62
2022/02/21 00:48:33;;;;;;;0.50;0.50;;;;;;;8.28;66.44;95728.41;29395;199;63004;-55
2022/02/21 00:49:05;;;;;;;0.60;0.60;;;;;;;8.30;66.82;95730.81;29395;262;63009;-59
2022/02/21 00:49:38;;;;;;;0.55;0.55;;;;;;;8.29;67.01;95761.66;29395;202;63004;-54
2022/02/21 00:50:10;;;;;;;0.55;0.55;;;;;;;8.28;66.83;95750.03;29395;250;63008;-56
2022/02/21 00:50:45;;;;;;;0.60;0.60;;;;;;;8.26;66.70;95744.12;29395;209;63005;-56
2022/02/21 00:51:16;;;;;;;0.50;0.50;;;;;;;8.25;67.52;95747.16;29394;205;64014;-52
2022/02/21 00:51:47;;;;;;;0.50;0.50;;;;;;;8.19;67.67;95762.66;29395;216;63001;-61
2022/02/21 00:52:19;;;;;;;0.50;0.50;;;;;;;8.20;67.70;95745.34;29395;236;63009;-53
2022/02/21 00:52:50;;;;;;;0.50;0.50;;;;;;;8.24;67.53;95742.84;29395;238;63005;-61
2022/02/21 00:53:21;;;;;;;0.50;0.50;;;;;;;8.26;67.58;95740.63;29395;260;63009;-61
2022/02/21 00:53:55;;;;;;;0.60;0.60;;;;;;;8.29;68.15;95756.25;29395;230;63005;-61
2022/02/21 00:54:28;;;;;;;0.50;0.50;;;;;;;8.29;67.99;95761.66;29394;197;64013;-59
2022/02/21 00:55:03;;;;;;;0.50;0.50;;;;;;;8.27;68.41;95753.03;29395;210;63010;-59
2022/02/21 00:55:35;;;;;;;0.52;0.52;;;;;;;8.27;68.75;95759.25;29395;197;63009;-57
2022/02/21 00:56:06;;;;;;;0.50;0.50;;;;;;;8.22;68.50;95750.47;29395;329;63004;-61
2022/02/21 00:56:37;;;;;;;0.50;0.50;;;;;;;8.21;68.71;95754.25;29395;241;63009;-60
2022/02/21 00:57:08;;;;;;;0.50;0.50;;;;;;;8.16;68.43;95741.66;29395;203;63010;-53
2022/02/21 00:57:41;;;;;;;0.60;0.60;;;;;;;8.17;68.94;95748.66;29395;291;63008;-60
2022/02/21 00:58:12;;;;;;;0.50;0.50;;;;;;;8.17;68.50;95764.88;29394;219;64009;-61
2022/02/21 00:58:45;;;;;;;0.50;0.50;;;;;;;8.13;69.62;95736.06;29395;264;63009;-60
2022/02/21 00:59:16;;;;;;;0.50;0.50;;;;;;;8.05;69.73;95743.78;29395;211;63005;-54
2022/02/21 00:59:48;;;;;;;0.50;0.50;;;;;;;8.05;69.34;95735.69;29395;234;63009;-60
2022/02/21 01:00:20;;;;;;;0.50;0.50;;;;;;;8.08;69.19;95736.97;29395;225;63005;-62
2022/02/21 01:00:51;;;;;;;0.50;0.50;;;;;;;8.08;69.77;95735.06;29395;208;63017;-60
2022/02/21 01:01:23;;;;;;;0.60;0.60;;;;;;;8.08;69.29;95735.06;29395;202;63005;-61
2022/02/21 01:01:55;;;;;;;0.50;0.50;;;;;;;8.03;69.77;95740.59;29395;228;63009;-56
2022/02/21 01:02:26;;;;;;;0.50;0.50;;;;;;;8.03;69.22;95732.47;29395;213;63004;-59
2022/02/21 01:02:57;;;;;;;0.50;0.50;;;;;;;8.01;69.95;95720.38;29395;293;63009;-57
2022/02/21 01:03:28;;;;;;;0.50;0.50;;;;;;;8.00;70.33;95733.09;29394;210;64009;-61
2022/02/21 01:03:59;;;;;;;0.50;0.50;;;;;;;7.99;69.72;95728.78;29394;204;64013;-57
2022/02/21 01:04:31;;;;;;;0.50;0.50;;;;;;;8.00;69.88;95733.09;29395;218;63004;-62
2022/02/21 01:05:05;;;;;;;0.50;0.50;;;;;;;7.99;69.80;95720.69;29395;233;63008;-59
2022/02/21 01:05:40;;;;;;;0.50;0.50;;;;;;;8.03;69.60;95710.87;29395;227;63001;-58
2022/02/21 01:06:11;;;;;;;0.50;0.50;;;;;;;8.01;69.58;95712.28;29395;240;63009;-61
2022/02/21 01:06:42;;;;;;;0.50;0.50;;;;;;;7.99;70.01;95714.47;29394;289;64009;-62
2022/02/21 01:07:13;;;;;;;0.50;0.50;;;;;;;7.97;70.41;95717.50;29395;199;63009;-61
2022/02/21 01:07:49;;;;;;;0.50;0.50;;;;;;;7.94;70.18;95710.03;29395;202;63005;-58
2022/02/21 01:08:20;;;;;;;0.80;0.80;;;;;;;7.94;70.05;95712.72;29395;216;63009;-58
2022/02/21 01:08:51;;;;;;;0.60;0.60;;;;;;;7.90;70.62;95711.72;29395;269;63004;-55
2022/02/21 01:09:22;;;;;;;0.60;0.60;;;;;;;7.91;69.95;95710.63;29395;216;63009;-60
2022/02/21 01:09:54;;;;;;;0.50;0.50;;;;;;;7.89;70.00;95704.72;29395;251;63012;-59
2022/02/21 01:10:27;;;;;;;0.50;0.50;;;;;;;7.87;70.04;95716.94;29394;221;64013;-54
2022/02/21 01:10:58;;;;;;;0.50;0.50;;;;;;;7.85;70.72;95719.94;29395;220;63004;-58
2022/02/21 01:11:30;;;;;;;0.50;0.50;;;;;;;7.87;70.35;95723.13;29395;244;63008;-60
2022/02/21 01:12:05;;;;;;;0.50;0.50;;;;;;;7.92;69.87;95706.81;29395;228;63004;-57
2022/02/21 01:12:37;;;;;;;0.57;0.57;;;;;;;7.96;69.93;95709.72;29395;196;63008;-67
2022/02/21 01:13:10;;;;;;;1.65;1.55;;;;;;;7.99;69.35;95703.69;29395;280;63005;-66
2022/02/21 01:13:41;;;;;;;0.60;0.60;;;;;;;7.99;69.81;95693.69;29395;197;63009;-67
2022/02/21 01:14:12;;;;;;;0.57;0.57;;;;;;;8.04;69.21;95707.06;29396;231;63005;-57
2022/02/21 01:14:44;;;;;;;0.50;0.50;;;;;;;8.02;69.76;95708.47;29395;251;63009;-63
2022/02/21 01:15:15;;;;;;;0.50;0.50;;;;;;;7.99;69.45;95715.28;29395;197;63005;-56
2022/02/21 01:15:46;;;;;;;0.57;0.57;;;;;;;8.01;69.85;95709.56;29394;207;64013;-57
2022/02/21 01:16:17;;;;;;;0.50;0.50;;;;;;;8.04;70.04;95707.06;29394;294;64004;-56
2022/02/21 01:16:48;;;;;;;0.50;0.50;;;;;;;8.01;69.80;95715.78;29395;204;63009;-59
2022/02/21 01:17:22;;;;;;;0.60;0.60;;;;;;;8.06;69.56;95687.84;29395;216;63004;-64
2022/02/21 01:17:53;;;;;;;0.50;0.50;;;;;;;8.08;69.69;95699.94;29395;223;63009;-61
2022/02/21 01:18:24;;;;;;;0.68;0.68;;;;;;;8.08;69.78;95691.84;29395;272;63004;-58
2022/02/21 01:18:56;;;;;;;0.50;0.50;;;;;;;8.04;70.20;95701.66;29395;299;63008;-57
2022/02/21 01:19:27;;;;;;;0.57;0.57;;;;;;;8.03;69.60;95694.66;29395;237;63004;-60
2022/02/21 01:20:03;;;;;;;0.60;0.60;;;;;;;8.05;69.57;95703.25;29395;223;63009;-57
2022/02/21 01:20:34;;;;;;;0.50;0.50;;;;;;;8.07;69.71;95700.25;29395;207;63005;-58
2022/02/21 01:21:08;;;;;;;0.50;0.50;;;;;;;8.04;69.64;95695.47;29394;218;64014;-58
2022/02/21 01:21:40;;;;;;;0.50;0.50;;;;;;;7.98;69.87;95686.66;29395;205;63005;-58
2022/02/21 01:22:11;;;;;;;0.60;0.60;;;;;;;7.97;69.99;95685.06;29395;218;63011;-62
2022/02/21 01:22:43;;;;;;;0.50;0.50;;;;;;;7.94;70.21;95685.72;29395;297;63009;-63
2022/02/21 01:23:15;;;;;;;0.70;0.70;;;;;;;7.93;70.12;95694.13;29395;203;63009;-60
2022/02/21 01:23:47;;;;;;;0.50;0.50;;;;;;;7.91;70.23;95664.72;29395;232;63005;-60
2022/02/21 01:24:18;;;;;;;0.50;0.50;;;;;;;7.94;69.90;95674.91;29394;227;64013;-59
2022/02/21 01:24:49;;;;;;;0.50;0.50;;;;;;;7.90;70.40;95683.91;29395;271;63004;-67
2022/02/21 01:25:20;;;;;;;0.50;0.50;;;;;;;7.89;70.52;95675.03;29395;223;63009;-61
2022/02/21 01:25:52;;;;;;;0.50;0.50;;;;;;;7.87;70.44;95679.94;29395;224;63004;-55
2022/02/21 01:26:24;;;;;;;0.65;0.65;;;;;;;7.88;70.73;95678.03;29395;271;63008;-62
2022/02/21 01:26:56;;;;;;;0.50;0.50;;;;;;;7.82;71.32;95669.22;29395;209;63004;-61
2022/02/21 01:27:27;;;;;;;0.50;0.50;;;;;;;7.87;70.78;95669.13;29395;217;63009;-55
2022/02/21 01:27:58;;;;;;;0.50;0.50;;;;;;;7.86;70.35;95662.13;29395;254;63005;-61
2022/02/21 01:28:29;;;;;;;0.50;0.50;;;;;;;7.85;70.71;95651.63;29395;221;63009;-57
2022/02/21 01:29:01;;;;;;;0.50;0.50;;;;;;;7.84;70.67;95674.34;29395;227;63005;-58
2022/02/21 01:29:32;;;;;;;0.50;0.50;;;;;;;7.87;70.33;95657.53;29394;214;64013;-68
2022/02/21 01:30:08;;;;;;;0.50;0.50;;;;;;;7.83;70.91;95657.34;29395;206;63005;-60
2022/02/21 01:30:39;;;;;;;0.50;0.50;;;;;;;7.85;70.91;95668.62;29395;307;63009;-50
2022/02/21 01:31:12;;;;;;;0.50;0.50;;;;;;;7.89;70.42;95683.12;29395;206;63005;-61
2022/02/21 01:31:44;;;;;;;0.50;0.50;;;;;;;7.89;70.54;95653.41;29395;221;63009;-62
2022/02/21 01:32:15;;;;;;;0.50;0.50;;;;;;;7.86;70.97;95654.03;29395;377;63004;-66
2022/02/21 01:32:46;;;;;;;0.50;0.50;;;;;;;7.82;71.12;95654.94;29394;317;64013;-62
2022/02/21 01:33:19;;;;;;;0.50;0.50;;;;;;;7.78;71.17;95660.16;29394;221;64004;-60
2022/02/21 01:33:54;;;;;;;0.50;0.50;;;;;;;7.79;71.58;95650.13;29395;283;63009;-59
2022/02/21 01:34:25;;;;;;;0.50;0.50;;;;;;;7.82;71.01;95650.34;29395;202;63004;-54
2022/02/21 01:34:58;;;;;;;0.50;0.50;;;;;;;7.76;71.63;95665.03;29395;196;63009;-61
2022/02/21 01:35:29;;;;;;;0.50;0.50;;;;;;;7.81;70.72;95645.22;29394;210;64009;-60
2022/02/21 01:36:00;;;;;;;0.50;0.50;;;;;;;7.82;70.73;95639.53;29395;218;63009;-59
2022/02/21 01:36:32;;;;;;;0.50;0.50;;;;;;;7.82;70.40;95644.94;29394;250;64009;-60
2022/02/21 01:37:04;;;;;;;0.50;0.50;;;;;;;7.81;70.92;95637.94;29395;242;63009;-55
2022/02/21 01:37:35;;;;;;;0.50;0.50;;;;;;;7.84;70.84;95648.13;29395;208;63005;-54
2022/02/21 01:38:06;;;;;;;0.60;0.60;;;;;;;7.88;70.96;95659.91;29395;208;63009;-53
2022/02/21 01:38:38;;;;;;;0.50;0.50;;;;;;;7.89;70.33;95639.91;29395;226;63005;-55
2022/02/21 01:39:09;;;;;;;0.50;0.50;;;;;;;7.94;70.33;95644.41;29395;198;63009;-53
2022/02/21 01:39:40;;;;;;;0.50;0.50;;;;;;;7.92;70.23;95663.59;29395;286;63004;-58
2022/02/21 01:40:12;;;;;;;0.50;0.50;;;;;;;7.94;70.60;95625.50;29395;199;63009;-61
2022/02/21 01:40:44;;;;;;;0.50;0.50;;;;;;;7.97;70.11;95632.97;29395;244;63004;-62
2022/02/21 01:41:18;;;;;;;0.50;0.50;;;;;;;7.91;70.61;95616.09;29395;216;63009;-55
2022/02/21 01:41:49;;;;;;;0.50;0.50;;;;;;;7.86;70.78;95637.81;29394;226;64008;-65
2022/02/21 01:42:20;;;;;;;0.65;0.65;;;;;;;7.88;70.95;95641.00;29395;233;63009;-58
2022/02/21 01:42:54;;;;;;;0.50;0.50;;;;;;;7.89;70.42;95628.31;29395;236;63005;-58
2022/02/21 01:43:25;;;;;;;0.50;0.50;;;;;;;7.91;70.48;95637.72;29395;231;63009;-59
2022/02/21 01:44:08;;;;;;;0.50;0.50;;;;;;;7.94;70.31;95620.88;29395;197;63005;-55
2022/02/21 01:44:45;;;;;;;0.50;0.50;;;;;;;7.87;70.85;95620.50;29395;199;63009;-55
2022/02/21 01:45:20;;;;;;;0.50;0.50;;;;;;;7.90;70.67;95638.00;29395;212;63012;-58
2022/02/21 01:45:52;;;;;;;0.50;0.50;;;;;;;7.92;70.80;95623.09;29395;418;63009;-59
2022/02/21 01:46:23;;;;;;;0.50;0.50;;;;;;;7.92;70.48;95620.41;29395;232;63005;-58
2022/02/21 01:46:54;;;;;;;0.50;0.50;;;;;;;7.94;70.36;95620.88;29394;234;64013;-65
2022/02/21 01:47:25;;;;;;;0.50;0.50;;;;;;;7.95;70.34;95619.00;29395;238;63004;-60
2022/02/21 01:47:56;;;;;;;0.50;0.50;;;;;;;7.94;70.53;95615.50;29395;249;63009;-58
2022/02/21 01:48:27;;;;;;;0.50;0.50;;;;;;;7.91;70.50;95624.19;29395;247;63004;-56
2022/02/21 01:48:59;;;;;;;0.50;0.50;;;;;;;7.89;70.89;95623.72;29395;209;63009;-56
2022/02/21 01:49:30;;;;;;;0.70;0.70;;;;;;;7.91;70.26;95610.69;29395;227;63004;-59
2022/02/21 01:50:02;;;;;;;0.50;0.50;;;;;;;7.88;70.81;95595.09;29395;231;63022;-57
2022/02/21 01:50:33;;;;;;;0.50;0.50;;;;;;;7.91;70.14;95616.09;29395;200;63005;-63
2022/02/21 01:51:05;;;;;;;0.50;0.50;;;;;;;7.93;70.05;95619.28;29394;221;64014;-56
2022/02/21 01:51:37;;;;;;;0.60;0.60;;;;;;;7.97;69.81;95608.69;29395;220;63005;-58
2022/02/21 01:52:09;;;;;;;0.50;0.50;;;;;;;8.01;70.01;95606.94;29395;202;63009;-58
2022/02/21 01:52:41;;;;;;;0.50;0.50;;;;;;;7.97;70.20;95612.16;29395;245;63005;-59
2022/02/21 01:53:13;;;;;;;0.50;0.50;;;;;;;7.96;70.05;95620.59;29395;222;63021;-58
2022/02/21 01:53:44;;;;;;;0.50;0.50;;;;;;;7.98;69.86;95619.16;29395;199;63005;-49
2022/02/21 01:54:15;;;;;;;0.50;0.50;;;;;;;7.97;70.00;95606.75;29395;196;63009;-63
2022/02/21 01:54:47;;;;;;;0.50;0.50;;;;;;;7.98;69.82;95621.84;29395;213;63004;-60
2022/02/21 01:55:18;;;;;;;0.50;0.50;;;;;;;8.00;70.04;95619.63;29395;213;63009;-61
2022/02/21 01:55:53;;;;;;;0.50;0.50;;;;;;;7.99;69.79;95618.03;29394;212;64009;-56
2022/02/21 01:56:25;;;;;;;0.50;0.50;;;;;;;7.99;69.81;95609.94;29395;208;63009;-61
2022/02/21 01:56:57;;;;;;;0.50;0.50;;;;;;;7.98;69.68;95597.53;29394;223;64008;-61
2022/02/21 01:57:29;;;;;;;0.50;0.50;;;;;;;7.97;70.09;95606.75;29395;335;63009;-59
2022/02/21 01:58:00;;;;;;;0.57;0.57;;;;;;;7.97;69.76;95614.84;29395;250;63005;-60
2022/02/21 01:58:32;;;;;;;0.60;0.60;;;;;;;7.96;69.83;95618.69;29395;262;63009;-60
2022/02/21 01:59:04;;;;;;;0.50;0.50;;;;;;;7.94;70.04;95601.97;29395;291;63005;-57
2022/02/21 01:59:37;;;;;;;0.50;0.50;;;;;;;7.95;70.17;95611.69;29395;221;63009;-60
2022/02/21 02:00:09;;;;;;;0.50;0.50;;;;;;;7.95;69.98;95606.28;29395;350;63005;-59
2022/02/21 02:00:41;;;;;;;0.50;0.50;;;;;;;7.94;69.96;95615.50;29394;202;64013;-60
2022/02/21 02:01:12;;;;;;;0.60;0.60;;;;;;;7.94;70.00;95612.00;29395;228;63005;-58
2022/02/21 02:01:43;;;;;;;0.50;0.50;;;;;;;7.95;69.98;95600.09;29395;221;63009;-62
2022/02/21 02:02:15;;;;;;;0.50;0.50;;;;;;;7.92;70.17;95611.50;29395;204;63004;-61
2022/02/21 02:02:46;;;;;;;0.50;0.50;;;;;;;7.93;70.44;95596.88;29395;223;63009;-58
2022/02/21 02:03:20;;;;;;;0.50;0.50;;;;;;;7.93;70.26;95605.78;29395;232;63004;-59
2022/02/21 02:03:51;;;;;;;0.50;0.50;;;;;;;7.93;70.45;95611.19;29395;306;63016;-60
2022/02/21 02:04:25;;;;;;;0.50;0.50;;;;;;;7.92;70.35;95601.50;29394;249;64008;-53
2022/02/21 02:04:56;;;;;;;0.50;0.50;;;;;;;7.89;70.62;95606.69;29395;246;63009;-59
2022/02/21 02:05:28;;;;;;;0.50;0.50;;;;;;;7.85;70.71;95600.31;29395;253;63015;-62
2022/02/21 02:05:59;;;;;;;0.50;0.50;;;;;;;7.79;70.81;95591.53;29395;204;63009;-60
2022/02/21 02:06:33;;;;;;;0.50;0.50;;;;;;;7.81;70.56;95600.12;29395;203;63005;-59
2022/02/21 02:07:06;;;;;;;0.50;0.50;;;;;;;7.81;70.81;95592.03;29395;249;63009;-59
2022/02/21 02:07:38;;;;;;;0.50;0.50;;;;;;;7.85;70.47;95614.62;29395;231;63005;-52
2022/02/21 02:08:10;;;;;;;0.60;0.60;;;;;;;7.92;69.97;95579.87;29395;218;63009;-57
2022/02/21 02:08:42;;;;;;;0.50;0.50;;;;;;;7.96;69.60;95597.06;29395;220;63005;-62
2022/02/21 02:09:17;;;;;;;0.50;0.50;;;;;;;7.93;69.79;95591.50;29394;249;64013;-60
2022/02/21 02:09:52;;;;;;;0.50;0.50;;;;;;;7.96;69.59;95586.28;29395;205;63004;-60
2022/02/21 02:10:23;;;;;;;0.50;0.50;;;;;;;7.97;69.79;95566.22;29395;239;63009;-55
2022/02/21 02:10:57;;;;;;;0.50;0.50;;;;;;;7.99;69.23;95572.13;29395;214;63004;-60
2022/02/21 02:11:32;;;;;;;0.50;0.50;;;;;;;7.92;69.95;95577.19;29395;236;63009;-57
2022/02/21 02:12:06;;;;;;;0.50;0.50;;;;;;;7.94;69.53;95577.69;29395;238;63004;-57
2022/02/21 02:12:37;;;;;;;0.50;0.50;;;;;;;7.93;69.60;95580.69;29395;323;63009;-57
2022/02/21 02:13:08;;;;;;;0.60;0.60;;;;;;;7.90;69.85;95571.28;29394;246;64009;-59
2022/02/21 02:13:40;;;;;;;0.50;0.50;;;;;;;7.91;69.96;95570.19;29395;208;63009;-55
2022/02/21 02:14:31;;;;;;;0.50;0.50;;;;;;;7.92;69.62;95552.88;29395;228;63005;-51
2022/02/21 02:15:03;;;;;;;0.60;0.60;;;;;;;7.91;69.58;95558.59;29416;292;64013;-62
2022/02/21 02:15:34;;;;;;;0.50;0.50;;;;;;;7.88;69.68;95556.50;29395;301;63005;-63
2022/02/21 02:16:06;;;;;;;0.50;0.50;;;;;;;7.89;69.68;95553.50;29395;211;63009;-51
2022/02/21 02:16:37;;;;;;;0.50;0.50;;;;;;;7.87;69.63;95555.69;29395;260;63004;-61
2022/02/21 02:17:14;;;;;;;0.50;0.50;;;;;;;7.87;69.89;95553.00;29395;243;63009;-55
2022/02/21 02:17:46;;;;;;;0.50;0.50;;;;;;;7.79;70.08;95559.13;29395;221;63004;-61
2022/02/21 02:18:17;;;;;;;0.50;0.50;;;;;;;7.82;70.15;95582.81;29395;237;63009;-60
2022/02/21 02:18:49;;;;;;;0.50;0.50;;;;;;;7.82;69.59;95542.31;29395;234;63004;-64
2022/02/21 02:19:20;;;;;;;0.50;0.50;;;;;;;7.84;69.75;95548.22;29395;207;63009;-58
2022/02/21 02:19:52;;;;;;;0.50;0.50;;;;;;;7.82;69.80;95547.72;29395;211;63005;-60
2022/02/21 02:20:23;;;;;;;0.50;0.50;;;;;;;7.82;69.96;95531.50;29394;258;64014;-60
2022/02/21 02:20:54;;;;;;;0.50;0.50;;;;;;;7.84;69.80;95544.72;29395;237;63005;-59
2022/02/21 02:21:27;;;;;;;0.50;0.50;;;;;;;7.86;70.05;95534.41;29395;216;63009;-58
2022/02/21 02:22:12;;;;;;;0.70;0.70;;;;;;;7.89;69.45;95526.47;29395;244;63005;-57
2022/02/21 02:22:45;;;;;;;0.50;0.50;;;;;;;7.87;69.43;95534.09;29395;203;63009;-55
2022/02/21 02:23:17;;;;;;;0.50;0.50;;;;;;;7.88;69.92;95535.69;29395;252;63005;-57
2022/02/21 02:23:50;;;;;;;0.50;0.50;;;;;;;7.90;69.65;95540.78;29395;220;63009;-59
2022/02/21 02:24:23;;;;;;;0.50;0.50;;;;;;;7.94;69.30;95526.34;29395;215;63004;-58
2022/02/21 02:24:54;;;;;;;0.50;0.50;;;;;;;7.97;69.39;95523.00;29395;248;63009;-58
2022/02/21 02:25:26;;;;;;;0.50;0.50;;;;;;;7.95;69.32;95511.75;29394;223;64009;-61
2022/02/21 02:25:57;;;;;;;0.50;0.50;;;;;;;7.92;69.41;95523.16;29395;218;63026;-62
2022/02/21 02:26:28;;;;;;;0.50;0.50;;;;;;;7.90;69.69;95511.06;29395;204;63004;-57
2022/02/21 02:27:00;;;;;;;0.50;0.50;;;;;;;7.86;69.92;95521.69;29394;244;64014;-56
2022/02/21 02:27:32;;;;;;;0.60;0.60;;;;;;;7.88;69.55;95513.28;29395;245;63005;-56
2022/02/21 02:28:03;;;;;;;0.50;0.50;;;;;;;7.88;69.88;95511.37;29395;229;63009;-57
2022/02/21 02:28:35;;;;;;;0.50;0.50;;;;;;;7.85;69.87;95533.59;29395;258;63005;-52
2022/02/21 02:29:07;;;;;;;0.50;0.50;;;;;;;7.83;69.85;95511.50;29395;250;63009;-56
2022/02/21 02:29:40;;;;;;;0.50;0.50;;;;;;;7.83;69.97;95500.72;29395;202;63005;-59
2022/02/21 02:30:11;;;;;;;0.50;0.50;;;;;;;7.80;70.00;95528.31;29395;248;63009;-63
2022/02/21 02:30:43;;;;;;;0.90;0.80;;;;;;;7.87;69.90;95504.37;29395;259;63005;-64
2022/02/21 02:31:15;;;;;;;0.50;0.50;;;;;;;7.91;69.93;95516.16;29395;209;63009;-57
2022/02/21 02:31:46;;;;;;;0.50;0.50;;;;;;;7.91;69.62;95505.38;29395;217;63003;-63
2022/02/21 02:32:20;;;;;;;0.50;0.50;;;;;;;7.87;69.76;95490.88;29394;220;64028;-51
2022/02/21 02:32:54;;;;;;;0.50;0.50;;;;;;;7.95;69.51;95506.34;29395;228;63004;-57
2022/02/21 02:33:25;;;;;;;0.50;0.50;;;;;;;7.94;69.87;95496.66;29395;242;63009;-61
2022/02/21 02:33:56;;;;;;;0.50;0.50;;;;;;;7.93;69.79;95489.66;29395;244;63004;-64
2022/02/21 02:34:27;;;;;;;0.50;0.50;;;;;;;7.92;69.94;95492.66;29395;202;63009;-60
2022/02/21 02:34:59;;;;;;;0.50;0.50;;;;;;;7.92;69.80;95503.47;29395;197;63005;-57